Portada
METAR-TAF:

METAR-TAF

Aeroports :

Vitòria, Espanya

latitud: 42-53N, longitud: 002-43W, altitud: 513 m

Observació

L'informe es va fer fa 22 minuts, a les 04:00 UTC
Vent 11 kt del Est
Temperatura 11°C
Humitat 76%
Pressió 1017 hPa
Visibilitat 10 km o més
Escasses núvols a una alçada de 2000 ft
Núvols disperses a una alçada de 7000 ft
pluja

METAR: LEVT 190400Z 10011KT 9999 -RA FEW020 SCT070 11/07 Q1017

Hora: 06:22 (04:22 UTC)

Pronòstic

L'informe es va fer fa 21 minuts, a les 04:01 UTC
Pronòstic vàlid del 19 a les 04 UTC al 19 a les 24 UTC
Vent 4 kt del Nord-Est
Visibilitat 10 km o més
Cel ennuvolat a una alçada de 5000 ft
Temporalment
l' 19 a les 04 UTC al 19 a les 09 UTC
pluja
Temporalment
l' 19 a les 04 UTC al 19 a les 11 UTC
Vent 10 kt del Est
Temporalment
l' 19 a les 11 UTC al 19 a les 19 UTC
Vent 14 kt del Nord/Nord-Est

TAF: LEVT 190401Z 1904/1924 04004KT 9999 BKN050 TX21/1915Z TN08/1906Z TEMPO 1904/1909 RA TEMPO 1904/1911 10010KT TEMPO 1911/1919 03014KT

Observacions i pronòstics meteorològics de més de 4000 aeroports (METAR i TAF).

Les estacions disponibles són els punts grocs i vermells al mapa.

Posi el ratolí al punt desitjat per veure el nom de l'estació.

Feu clic per veure les observacions i els pronòstics meteorològics.

Per canviar el mapa: feu clic els botons verds amb una creu de color negre per apropar; al botó verd amb un guió per allunyar la imatge; o en les fletxes verdes per a mapes adjacents.


METAR-TAF: